createdAt,value
2022-12-25T09:07:32.956Z,4.70
2022-12-25T09:10:00.627Z,4.80
2022-12-25T09:12:28.082Z,4.80
2022-12-25T09:14:55.643Z,4.88
2022-12-25T09:17:23.401Z,4.90
2022-12-25T10:54:27.150Z,7.30
2022-12-25T10:57:01.790Z,7.40
2022-12-25T10:59:49.232Z,7.44
2022-12-25T11:02:36.224Z,7.50
2022-12-25T11:05:24.578Z,7.60
2022-12-25T11:07:55.973Z,7.60
2022-12-25T11:10:33.298Z,7.70
2022-12-25T11:13:02.899Z,7.70
2022-12-25T11:15:49.181Z,7.72
2022-12-25T11:18:19.445Z,7.80
2022-12-25T11:21:16.398Z,7.80
2022-12-25T11:23:55.515Z,7.90
2022-12-25T11:26:23.500Z,7.90
2022-12-25T11:28:54.624Z,7.98
2022-12-25T11:31:54.499Z,8.00
2022-12-25T11:34:42.601Z,8.08
2022-12-25T11:37:36.877Z,8.10
2022-12-25T11:40:06.745Z,8.20
2022-12-25T11:42:45.893Z,8.24
2022-12-25T11:45:30.478Z,8.30
2022-12-25T11:48:02.458Z,8.34
2022-12-25T11:50:45.752Z,8.38
2022-12-25T11:53:53.961Z,8.40
2022-12-25T11:56:30.309Z,8.40
2022-12-25T11:59:34.876Z,8.40
2022-12-25T12:02:42.367Z,8.50
2022-12-25T12:05:28.264Z,8.50
2022-12-25T12:08:06.021Z,8.50
2022-12-25T12:10:41.022Z,8.50
2022-12-25T12:14:02.430Z,8.50
2022-12-25T12:16:31.121Z,8.60
2022-12-25T12:19:31.888Z,8.60
2022-12-25T12:22:03.659Z,8.70
2022-12-25T12:25:16.463Z,8.80
2022-12-25T12:27:45.604Z,9.00
2022-12-25T12:30:34.550Z,9.10
2022-12-25T12:33:08.169Z,9.20
2022-12-25T12:35:40.557Z,9.30
2022-12-25T12:38:19.394Z,9.38
2022-12-25T12:41:03.039Z,9.40
2022-12-25T12:44:06.158Z,9.46
2022-12-25T12:46:37.392Z,9.50
2022-12-25T12:49:26.026Z,9.50
2022-12-25T12:52:34.436Z,9.50
2022-12-25T12:55:08.696Z,9.50
2022-12-25T12:57:40.341Z,9.50
2022-12-25T13:00:19.207Z,9.50
2022-12-25T13:03:24.493Z,9.60
2022-12-25T13:06:29.838Z,9.60
2022-12-25T13:09:22.705Z,9.70
2022-12-25T13:11:50.661Z,9.70
2022-12-25T13:14:22.548Z,9.70
2022-12-25T13:16:54.253Z,9.68
2022-12-25T13:19:28.332Z,9.60
2022-12-25T13:22:01.016Z,9.52
2022-12-25T13:24:42.387Z,9.50
2022-12-25T13:27:32.741Z,9.40
2022-12-25T13:30:11.878Z,9.40
2022-12-25T13:32:39.581Z,9.30
2022-12-25T13:35:15.332Z,9.20
2022-12-25T13:37:44.857Z,9.18
2022-12-25T13:40:30.493Z,9.10
2022-12-25T13:43:02.065Z,9.00
2022-12-25T13:45:33.694Z,9.00
2022-12-25T13:48:15.920Z,8.90
2022-12-25T13:50:48.057Z,8.90
2022-12-25T13:53:18.295Z,8.76
2022-12-25T13:58:39.319Z,8.50
2022-12-25T14:01:07.356Z,8.50
2022-12-25T14:03:41.513Z,8.40
2022-12-25T14:06:28.629Z,8.30
2022-12-25T14:08:58.640Z,8.24
2022-12-25T14:11:29.410Z,8.10
2022-12-25T14:14:03.933Z,8.00
2022-12-25T14:16:32.216Z,7.90
2022-12-25T14:19:02.227Z,7.80
2022-12-25T14:21:41.413Z,7.70
2022-12-25T14:24:15.235Z,7.70
2022-12-25T14:26:43.303Z,7.66
2022-12-25T14:29:17.856Z,7.60
2022-12-25T14:31:47.742Z,7.60
2022-12-25T14:34:23.146Z,7.60
2022-12-25T14:36:53.327Z,7.56
2022-12-25T14:39:39.081Z,7.50
2022-12-25T14:42:21.800Z,7.48
2022-12-25T14:44:59.314Z,7.40
2022-12-25T14:47:27.869Z,7.40
2022-12-25T14:49:55.762Z,7.30
2022-12-25T14:52:46.556Z,7.30
2022-12-25T14:55:26.714Z,7.30
2022-12-25T14:58:05.832Z,7.30
2022-12-25T15:00:37.625Z,7.30
2022-12-25T15:03:36.096Z,7.26
2022-12-25T15:06:19.521Z,7.20
2022-12-25T15:09:03.619Z,7.20
2022-12-25T15:11:31.020Z,7.20
2022-12-25T15:13:59.093Z,7.20
2022-12-25T15:16:31.022Z,7.20
2022-12-25T15:19:00.590Z,7.20
2022-12-25T15:21:35.940Z,7.12
2022-12-25T15:24:04.187Z,7.12
2022-12-25T15:26:32.567Z,7.10
2022-12-25T15:29:00.157Z,7.10
2022-12-25T15:31:31.781Z,7.10
2022-12-25T15:34:05.413Z,7.10
2022-12-25T15:36:36.492Z,7.10
2022-12-25T15:39:04.194Z,7.10
2022-12-25T15:41:55.198Z,7.02
2022-12-25T15:44:23.888Z,7.00
2022-12-25T15:46:51.698Z,7.00
2022-12-25T15:49:19.720Z,7.00
2022-12-25T15:51:47.789Z,7.00
2022-12-25T15:54:15.440Z,7.00
2022-12-25T15:56:51.305Z,7.00
2022-12-25T15:59:21.017Z,6.94
2022-12-25T16:01:53.103Z,6.90
2022-12-25T16:04:21.988Z,6.90
2022-12-25T16:06:51.095Z,6.90
2022-12-25T16:09:21.079Z,6.90
2022-12-25T16:11:49.779Z,6.90
2022-12-25T16:14:19.180Z,6.90
2022-12-25T16:16:46.425Z,6.90
2022-12-25T16:19:13.865Z,6.90
2022-12-25T16:21:45.357Z,6.94
2022-12-25T16:24:14.216Z,7.00
2022-12-25T16:26:42.647Z,7.00
2022-12-25T16:29:11.138Z,7.00
2022-12-25T16:31:39.768Z,7.00
2022-12-25T16:34:08.568Z,7.00
2022-12-25T16:36:36.757Z,7.00
2022-12-25T16:39:05.043Z,7.00
2022-12-25T16:41:33.088Z,7.00
2022-12-25T16:44:09.762Z,6.98
2022-12-25T16:46:39.476Z,6.98
2022-12-25T16:49:07.176Z,7.00
2022-12-25T16:51:34.992Z,7.00
2022-12-25T16:54:02.861Z,7.00
2022-12-25T16:56:30.659Z,7.00
2022-12-25T16:59:00.497Z,6.90
2022-12-25T17:01:28.418Z,6.90
2022-12-25T17:04:02.427Z,6.90
2022-12-25T17:06:30.191Z,6.90
2022-12-25T17:09:00.180Z,6.90
2022-12-25T17:11:29.407Z,6.90
2022-12-25T17:14:03.133Z,6.90
2022-12-25T17:16:36.868Z,6.90
2022-12-25T17:19:19.333Z,6.90
2022-12-25T17:21:47.829Z,6.84
2022-12-25T17:24:16.900Z,6.80
2022-12-25T17:26:45.293Z,6.80
2022-12-25T17:29:20.104Z,6.80
2022-12-25T17:31:51.624Z,6.80
2022-12-25T17:34:20.025Z,6.80
2022-12-25T17:36:48.143Z,6.80
2022-12-25T17:39:16.220Z,6.80
2022-12-25T17:41:44.464Z,6.72
2022-12-25T17:44:13.582Z,6.70
2022-12-25T17:46:42.453Z,6.70
2022-12-25T17:49:17.129Z,6.70
2022-12-25T17:51:45.898Z,6.68
2022-12-25T17:54:15.171Z,6.62
2022-12-25T17:56:43.240Z,6.60
2022-12-25T17:59:18.542Z,6.60
2022-12-25T18:01:48.907Z,6.60
2022-12-25T18:04:16.530Z,6.60
2022-12-25T18:06:44.258Z,6.60
2022-12-25T18:09:13.247Z,6.60
2022-12-25T18:11:42.878Z,6.60
2022-12-25T18:14:14.931Z,6.60
2022-12-25T18:16:45.336Z,6.60
2022-12-25T18:19:15.670Z,6.60
2022-12-25T18:21:43.011Z,6.60
2022-12-25T18:24:10.583Z,6.60
2022-12-25T18:26:38.551Z,6.60
2022-12-25T18:29:07.030Z,6.60
2022-12-25T18:31:36.555Z,6.60
2022-12-25T18:34:04.379Z,6.60
2022-12-25T18:36:32.379Z,6.60
2022-12-25T18:39:00.543Z,6.60
2022-12-25T18:41:28.934Z,6.60
2022-12-25T18:44:00.682Z,6.54
2022-12-25T18:46:28.635Z,6.56
2022-12-25T18:48:57.662Z,6.60
2022-12-25T18:51:29.957Z,6.60
2022-12-25T18:54:02.917Z,6.60
2022-12-25T18:56:30.771Z,6.60
2022-12-25T18:59:02.114Z,6.60
2022-12-25T19:01:29.627Z,6.70
2022-12-25T19:04:04.623Z,6.70
2022-12-25T19:06:33.796Z,6.70
2022-12-25T19:09:08.807Z,6.70
2022-12-25T19:11:45.594Z,6.76
2022-12-25T19:14:15.255Z,6.80
2022-12-25T19:16:42.822Z,6.80
2022-12-25T19:19:10.758Z,6.80
2022-12-25T19:21:38.628Z,6.90
2022-12-25T19:24:07.309Z,6.90
2022-12-25T19:26:35.830Z,6.96
2022-12-25T19:29:03.658Z,7.00
2022-12-25T19:31:31.276Z,7.00
2022-12-25T19:33:59.078Z,7.00
2022-12-25T19:36:26.873Z,7.10
2022-12-25T19:38:54.923Z,7.10
2022-12-25T19:41:22.719Z,7.10
2022-12-25T19:43:51.988Z,7.10
2022-12-25T19:46:22.660Z,7.10
2022-12-25T19:48:50.906Z,7.10
2022-12-25T19:51:26.456Z,7.00
2022-12-25T19:53:58.350Z,6.90
2022-12-25T19:56:28.280Z,6.90
2022-12-25T19:58:57.164Z,6.80
2022-12-25T20:01:28.400Z,6.80
2022-12-25T20:03:57.147Z,6.70
2022-12-25T20:06:34.076Z,6.70
2022-12-25T20:09:09.051Z,6.60
2022-12-25T20:11:37.857Z,6.60
2022-12-25T20:14:07.554Z,6.60
2022-12-25T20:16:40.247Z,6.60
2022-12-25T20:19:09.549Z,6.60
2022-12-25T20:21:37.096Z,6.64
2022-12-25T20:24:06.287Z,6.70
2022-12-25T20:26:33.970Z,6.70
2022-12-25T20:29:01.833Z,6.70
2022-12-25T20:31:34.237Z,6.70
2022-12-25T20:34:08.622Z,6.70
2022-12-25T20:36:37.961Z,6.70
2022-12-25T20:39:09.489Z,6.70
2022-12-25T20:41:39.290Z,6.70
2022-12-25T20:44:09.774Z,6.70
2022-12-25T20:46:37.587Z,6.60
2022-12-25T20:49:06.915Z,6.50
2022-12-25T20:51:34.853Z,6.50
2022-12-25T20:54:09.750Z,6.48
2022-12-25T20:56:37.547Z,6.40
2022-12-25T20:59:05.538Z,6.40
2022-12-25T21:01:33.418Z,6.40
2022-12-25T21:04:01.719Z,6.40
2022-12-25T21:06:29.457Z,6.40
2022-12-25T21:08:57.307Z,6.40
2022-12-25T21:11:25.071Z,6.40
2022-12-25T21:13:52.929Z,6.40
2022-12-25T21:16:22.706Z,6.34
2022-12-25T21:18:53.252Z,6.30
2022-12-25T21:21:22.497Z,6.30
2022-12-25T21:23:50.672Z,6.30
2022-12-25T21:26:24.983Z,6.30
2022-12-25T21:28:55.793Z,6.34
2022-12-25T21:31:25.176Z,6.40
2022-12-25T21:33:55.043Z,6.40
2022-12-25T21:36:27.556Z,6.40
2022-12-25T21:39:02.368Z,6.40
2022-12-25T21:41:31.790Z,6.40
2022-12-25T21:44:00.213Z,6.40
2022-12-25T21:46:29.023Z,6.40
2022-12-25T21:48:57.790Z,6.40
2022-12-25T21:51:51.580Z,6.46
2022-12-25T21:54:22.732Z,6.50
2022-12-25T21:56:50.490Z,6.50
2022-12-25T21:59:21.140Z,6.40
2022-12-25T22:01:51.343Z,6.38
2022-12-25T22:04:22.473Z,6.32
2022-12-25T22:07:09.406Z,6.30
2022-12-25T22:09:37.771Z,6.30
2022-12-25T22:12:27.367Z,6.30
2022-12-25T22:15:05.926Z,6.30
2022-12-25T22:17:55.330Z,6.30
2022-12-25T22:20:27.661Z,6.28
2022-12-25T22:22:56.031Z,6.20
2022-12-25T22:25:25.086Z,6.30
2022-12-25T22:27:53.672Z,6.40
2022-12-25T22:30:25.546Z,6.50
2022-12-25T22:32:53.784Z,6.50
2022-12-25T22:35:21.860Z,6.60
2022-12-25T22:37:49.861Z,6.60
2022-12-25T22:40:19.597Z,6.70
2022-12-25T22:42:47.855Z,6.70
2022-12-25T22:45:16.153Z,6.70
2022-12-25T22:47:43.880Z,6.70
2022-12-25T22:50:14.540Z,6.70
2022-12-25T22:52:43.308Z,6.70
2022-12-25T22:55:18.736Z,6.70
2022-12-25T22:57:46.905Z,6.70
